SDG075 LICC-LIEO
Flight info
| Callsign | SDG075 |
|---|---|
| Flight time | N/A |
| Altitude | 36000 |
| Route | LIBRO DCT LEBNU DCT GIANO L12 POKAV M603 ATNET |
| Aircraft | B738/M-SDG075/L |
Departure
| Time | N/A |
|---|---|
| Airport | Catania-Fontanarossa Airport (LICC) |
Arrival
| Time | 2026-05-01 13:21 |
|---|---|
| Airport | Olbia Costa Smeralda Airport (LIEO) |
| Time | Latitude | Longitude | Altitude | Speed | Heading |
|---|---|---|---|---|---|
| 2026-05-01 12:57 | 40.78180 | 10.39809 | 18188 ft | 421 kts | 271° |
| 2026-05-01 12:58 | 40.77943 | 10.35976 | 17506 ft | 417 kts | 271° |
| 2026-05-01 12:58 | 40.77707 | 10.32189 | 16856 ft | 414 kts | 271° |
| 2026-05-01 12:58 | 40.77471 | 10.28419 | 16215 ft | 410 kts | 270° |
| 2026-05-01 12:59 | 40.77001 | 10.20977 | 14963 ft | 404 kts | 270° |
| 2026-05-01 12:59 | 40.76767 | 10.17299 | 14329 ft | 401 kts | 270° |
| 2026-05-01 12:59 | 40.77209 | 10.10114 | 12867 ft | 389 kts | 290° |
| 2026-05-01 13:00 | 40.78825 | 10.03392 | 11754 ft | 378 kts | 290° |
| 2026-05-01 13:00 | 40.79560 | 10.00140 | 11615 ft | 363 kts | 290° |
| 2026-05-01 13:01 | 40.80935 | 9.93967 | 11293 ft | 338 kts | 290° |
| 2026-05-01 13:01 | 40.81588 | 9.91041 | 11153 ft | 327 kts | 290° |
| 2026-05-01 13:01 | 40.82825 | 9.85504 | 10891 ft | 307 kts | 290° |
| 2026-05-01 13:02 | 40.83419 | 9.82847 | 10765 ft | 297 kts | 291° |
| 2026-05-01 13:07 | 40.68158 | 9.37684 | 7275 ft | 270 kts | 238° |
| 2026-05-01 13:07 | 40.67088 | 9.35658 | 7265 ft | 268 kts | 238° |
| 2026-05-01 13:07 | 40.66026 | 9.33651 | 7255 ft | 265 kts | 237° |
| 2026-05-01 13:08 | 40.64975 | 9.31665 | 7248 ft | 265 kts | 237° |
| 2026-05-01 13:08 | 40.63912 | 9.29649 | 7117 ft | 269 kts | 238° |
| 2026-05-01 13:08 | 40.62841 | 9.27619 | 7022 ft | 271 kts | 237° |
| 2026-05-01 13:08 | 40.61761 | 9.25573 | 6881 ft | 273 kts | 237° |
| 2026-05-01 13:09 | 40.60678 | 9.23525 | 6749 ft | 274 kts | 237° |
| 2026-05-01 13:09 | 40.59585 | 9.21456 | 6509 ft | 275 kts | 237° |
| 2026-05-01 13:09 | 40.58505 | 9.19414 | 6384 ft | 270 kts | 237° |
| 2026-05-01 13:09 | 40.57452 | 9.17391 | 6174 ft | 266 kts | 244° |
| 2026-05-01 13:10 | 40.56997 | 9.15135 | 6048 ft | 250 kts | 279° |
| 2026-05-01 13:10 | 40.57431 | 9.13001 | 5968 ft | 240 kts | 303° |
| 2026-05-01 13:10 | 40.58400 | 9.11263 | 5802 ft | 234 kts | 324° |
| 2026-05-01 13:10 | 40.59676 | 9.09962 | 5696 ft | 233 kts | 331° |
| 2026-05-01 13:11 | 40.61021 | 9.08750 | 5577 ft | 236 kts | 331° |
| 2026-05-01 13:11 | 40.62370 | 9.07514 | 5406 ft | 235 kts | 332° |
| 2026-05-01 13:11 | 40.63760 | 9.06589 | 5281 ft | 221 kts | 356° |
| 2026-05-01 13:11 | 40.65223 | 9.06752 | 5248 ft | 210 kts | 22° |
| 2026-05-01 13:12 | 40.66493 | 9.07705 | 5131 ft | 211 kts | 44° |
| 2026-05-01 13:12 | 40.67425 | 9.09198 | 5077 ft | 214 kts | 54° |
| 2026-05-01 13:12 | 40.68265 | 9.10828 | 5011 ft | 213 kts | 55° |
| 2026-05-01 13:12 | 40.69076 | 9.12426 | 4917 ft | 206 kts | 55° |
| 2026-05-01 13:13 | 40.69865 | 9.13969 | 4847 ft | 201 kts | 55° |
| 2026-05-01 13:13 | 40.70659 | 9.15476 | 4829 ft | 198 kts | 54° |
| 2026-05-01 13:13 | 40.71444 | 9.16942 | 4736 ft | 194 kts | 54° |
| 2026-05-01 13:13 | 40.72205 | 9.18362 | 4649 ft | 188 kts | 54° |
| 2026-05-01 13:14 | 40.72958 | 9.19765 | 4596 ft | 187 kts | 54° |
| 2026-05-01 13:14 | 40.73701 | 9.21155 | 4584 ft | 184 kts | 54° |
| 2026-05-01 13:14 | 40.74444 | 9.22538 | 4499 ft | 184 kts | 53° |
| 2026-05-01 13:14 | 40.75173 | 9.23892 | 4420 ft | 183 kts | 54° |
| 2026-05-01 13:15 | 40.75902 | 9.25250 | 4373 ft | 182 kts | 54° |
| 2026-05-01 13:15 | 40.76639 | 9.26602 | 4309 ft | 182 kts | 51° |
| 2026-05-01 13:15 | 40.77413 | 9.27906 | 4259 ft | 179 kts | 51° |
| 2026-05-01 13:15 | 40.78163 | 9.29262 | 4156 ft | 185 kts | 54° |
| 2026-05-01 13:16 | 40.78884 | 9.30644 | 4066 ft | 181 kts | 54° |
| 2026-05-01 13:16 | 40.79557 | 9.31944 | 3975 ft | 172 kts | 54° |
| 2026-05-01 13:16 | 40.80247 | 9.33268 | 3752 ft | 176 kts | 55° |
| 2026-05-01 13:17 | 40.82221 | 9.37059 | 2947 ft | 159 kts | 56° |
| 2026-05-01 13:17 | 40.82832 | 9.38258 | 2708 ft | 155 kts | 52° |
| 2026-05-01 13:18 | 40.83835 | 9.40235 | 2304 ft | 159 kts | 59° |
| 2026-05-01 13:18 | 40.84461 | 9.41451 | 2048 ft | 162 kts | 51° |
| 2026-05-01 13:18 | 40.85077 | 9.42676 | 1766 ft | 160 kts | 61° |
| 2026-05-01 13:18 | 40.85714 | 9.43861 | 1520 ft | 159 kts | 41° |
| 2026-05-01 13:19 | 40.86519 | 9.44845 | 1184 ft | 160 kts | 48° |
| 2026-05-01 13:19 | 40.87065 | 9.46159 | 751 ft | 169 kts | 67° |
| 2026-05-01 13:19 | 40.88238 | 9.48656 | 381 ft | 146 kts | 51° |
| 2026-05-01 13:20 | 40.88834 | 9.49765 | 450 ft | 153 kts | 55° |
| 2026-05-01 13:20 | 40.89476 | 9.51006 | 141 ft | 166 kts | 55° |
| 2026-05-01 13:20 | 40.90054 | 9.52108 | 36 ft | 93 kts | 55° |
| 2026-05-01 13:21 | 40.90348 | 9.52649 | 33 ft | 22 kts | 34° |
| 2026-05-01 13:21 | 40.90451 | 9.52577 | 34 ft | 22 kts | 271° |
| 2026-05-01 13:21 | 40.90400 | 9.52399 | 34 ft | 20 kts | 239° |